sensor_id;sensor_type;location;lat;lon;timestamp;temperature;humidity
11122;DHT22;5615;49.304;10.576;2022-12-18T00:01:57;-12.70;99.90
11122;DHT22;5615;49.304;10.576;2022-12-18T00:04:25;-12.70;99.90
11122;DHT22;5615;49.304;10.576;2022-12-18T00:06:53;-12.60;99.90
11122;DHT22;5615;49.304;10.576;2022-12-18T00:09:19;-12.70;99.90
11122;DHT22;5615;49.304;10.576;2022-12-18T00:11:46;-12.60;99.90
11122;DHT22;5615;49.304;10.576;2022-12-18T00:14:14;-12.60;99.90
11122;DHT22;5615;49.304;10.576;2022-12-18T00:16:43;-12.40;99.90
11122;DHT22;5615;49.304;10.576;2022-12-18T00:19:10;-12.30;99.90
11122;DHT22;5615;49.304;10.576;2022-12-18T00:21:37;-12.30;99.90
11122;DHT22;5615;49.304;10.576;2022-12-18T00:24:04;-12.10;99.90
11122;DHT22;5615;49.304;10.576;2022-12-18T00:26:32;-12.10;99.90
11122;DHT22;5615;49.304;10.576;2022-12-18T00:29:00;-12.10;99.90
11122;DHT22;5615;49.304;10.576;2022-12-18T00:31:28;-12.00;99.90
11122;DHT22;5615;49.304;10.576;2022-12-18T00:33:56;-12.10;99.90
11122;DHT22;5615;49.304;10.576;2022-12-18T00:36:25;-12.10;99.90
11122;DHT22;5615;49.304;10.576;2022-12-18T00:38:53;-12.10;99.90
11122;DHT22;5615;49.304;10.576;2022-12-18T00:41:21;-12.10;99.90
11122;DHT22;5615;49.304;10.576;2022-12-18T00:44:02;-12.20;99.90
11122;DHT22;5615;49.304;10.576;2022-12-18T00:46:30;-12.10;99.90
11122;DHT22;5615;49.304;10.576;2022-12-18T00:48:57;-12.20;99.90
11122;DHT22;5615;49.304;10.576;2022-12-18T00:51:24;-12.20;99.90
11122;DHT22;5615;49.304;10.576;2022-12-18T00:53:51;-12.20;99.90
11122;DHT22;5615;49.304;10.576;2022-12-18T00:56:21;-12.30;99.90
11122;DHT22;5615;49.304;10.576;2022-12-18T00:58:48;-12.40;99.90
11122;DHT22;5615;49.304;10.576;2022-12-18T01:01:14;-12.40;99.90
11122;DHT22;5615;49.304;10.576;2022-12-18T01:03:42;-12.30;99.90
11122;DHT22;5615;49.304;10.576;2022-12-18T01:06:11;-12.20;99.90
11122;DHT22;5615;49.304;10.576;2022-12-18T01:08:39;-12.20;99.90
11122;DHT22;5615;49.304;10.576;2022-12-18T01:11:08;-12.20;99.90
11122;DHT22;5615;49.304;10.576;2022-12-18T01:13:35;-12.20;99.90
11122;DHT22;5615;49.304;10.576;2022-12-18T01:16:02;-12.20;99.90
11122;DHT22;5615;49.304;10.576;2022-12-18T01:18:28;-12.20;99.90
11122;DHT22;5615;49.304;10.576;2022-12-18T01:20:56;-12.10;99.90
11122;DHT22;5615;49.304;10.576;2022-12-18T01:23:23;-12.20;99.90
11122;DHT22;5615;49.304;10.576;2022-12-18T01:25:50;-12.20;99.90
11122;DHT22;5615;49.304;10.576;2022-12-18T01:28:16;-12.00;99.90
11122;DHT22;5615;49.304;10.576;2022-12-18T01:30:43;-11.80;99.90
11122;DHT22;5615;49.304;10.576;2022-12-18T01:33:10;-11.60;99.90
11122;DHT22;5615;49.304;10.576;2022-12-18T01:35:40;-11.50;99.90
11122;DHT22;5615;49.304;10.576;2022-12-18T01:38:08;-11.40;99.90
11122;DHT22;5615;49.304;10.576;2022-12-18T01:40:35;-11.30;99.90
11122;DHT22;5615;49.304;10.576;2022-12-18T01:43:02;-11.30;99.90
11122;DHT22;5615;49.304;10.576;2022-12-18T01:45:30;-11.20;99.90
11122;DHT22;5615;49.304;10.576;2022-12-18T01:47:59;-11.10;99.90
11122;DHT22;5615;49.304;10.576;2022-12-18T01:50:31;-10.90;99.90
11122;DHT22;5615;49.304;10.576;2022-12-18T01:53:02;-10.80;99.90
11122;DHT22;5615;49.304;10.576;2022-12-18T01:55:35;-10.70;99.90
11122;DHT22;5615;49.304;10.576;2022-12-18T01:58:03;-10.50;99.90
11122;DHT22;5615;49.304;10.576;2022-12-18T02:00:30;-10.50;99.90
11122;DHT22;5615;49.304;10.576;2022-12-18T02:02:57;-10.50;99.90
11122;DHT22;5615;49.304;10.576;2022-12-18T02:05:33;-10.40;99.90
11122;DHT22;5615;49.304;10.576;2022-12-18T02:08:09;-10.40;99.90
11122;DHT22;5615;49.304;10.576;2022-12-18T02:10:43;-10.40;99.90
11122;DHT22;5615;49.304;10.576;2022-12-18T02:13:16;-10.40;99.90
11122;DHT22;5615;49.304;10.576;2022-12-18T02:15:51;-10.30;99.90
11122;DHT22;5615;49.304;10.576;2022-12-18T02:18:23;-10.30;99.90
11122;DHT22;5615;49.304;10.576;2022-12-18T02:20:56;-10.30;99.90
11122;DHT22;5615;49.304;10.576;2022-12-18T02:23:41;-10.20;99.90
11122;DHT22;5615;49.304;10.576;2022-12-18T02:26:17;-10.20;99.90
11122;DHT22;5615;49.304;10.576;2022-12-18T02:28:47;-10.20;99.90
11122;DHT22;5615;49.304;10.576;2022-12-18T02:31:19;-10.10;99.90
11122;DHT22;5615;49.304;10.576;2022-12-18T02:33:49;-10.10;99.90
11122;DHT22;5615;49.304;10.576;2022-12-18T02:36:17;-10.00;99.90
11122;DHT22;5615;49.304;10.576;2022-12-18T02:38:46;-9.90;99.90
11122;DHT22;5615;49.304;10.576;2022-12-18T02:41:16;-9.90;99.90
11122;DHT22;5615;49.304;10.576;2022-12-18T02:43:47;-9.80;99.90
11122;DHT22;5615;49.304;10.576;2022-12-18T02:46:31;-9.70;99.90
11122;DHT22;5615;49.304;10.576;2022-12-18T02:49:06;-9.80;99.90
11122;DHT22;5615;49.304;10.576;2022-12-18T02:51:45;-9.80;99.90
11122;DHT22;5615;49.304;10.576;2022-12-18T02:54:20;-9.80;99.90
11122;DHT22;5615;49.304;10.576;2022-12-18T02:56:53;-9.70;99.90
11122;DHT22;5615;49.304;10.576;2022-12-18T02:59:26;-9.60;99.90
11122;DHT22;5615;49.304;10.576;2022-12-18T03:01:58;-9.60;99.90
11122;DHT22;5615;49.304;10.576;2022-12-18T03:04:32;-9.50;99.90
11122;DHT22;5615;49.304;10.576;2022-12-18T03:07:05;-9.50;99.90
11122;DHT22;5615;49.304;10.576;2022-12-18T03:09:36;-9.40;99.90
11122;DHT22;5615;49.304;10.576;2022-12-18T03:12:10;-9.50;99.90
11122;DHT22;5615;49.304;10.576;2022-12-18T03:14:54;-9.40;99.90
11122;DHT22;5615;49.304;10.576;2022-12-18T03:17:24;-9.40;99.90
11122;DHT22;5615;49.304;10.576;2022-12-18T03:19:52;-9.40;99.90
11122;DHT22;5615;49.304;10.576;2022-12-18T03:22:22;-9.30;99.90
11122;DHT22;5615;49.304;10.576;2022-12-18T03:24:50;-9.30;99.90
11122;DHT22;5615;49.304;10.576;2022-12-18T03:27:21;-9.20;99.90
11122;DHT22;5615;49.304;10.576;2022-12-18T03:29:54;-9.20;99.90
11122;DHT22;5615;49.304;10.576;2022-12-18T03:32:31;-9.10;99.90
11122;DHT22;5615;49.304;10.576;2022-12-18T03:35:03;-9.00;99.90
11122;DHT22;5615;49.304;10.576;2022-12-18T03:37:30;-8.90;99.90
11122;DHT22;5615;49.304;10.576;2022-12-18T03:39:57;-8.80;99.90
11122;DHT22;5615;49.304;10.576;2022-12-18T03:42:28;-8.70;99.90
11122;DHT22;5615;49.304;10.576;2022-12-18T03:45:00;-8.60;99.90
11122;DHT22;5615;49.304;10.576;2022-12-18T03:47:31;-8.50;99.90
11122;DHT22;5615;49.304;10.576;2022-12-18T03:50:09;-8.50;99.90
11122;DHT22;5615;49.304;10.576;2022-12-18T03:52:41;-8.40;99.90
11122;DHT22;5615;49.304;10.576;2022-12-18T03:55:09;-8.30;99.90
11122;DHT22;5615;49.304;10.576;2022-12-18T03:57:39;-8.30;99.90
11122;DHT22;5615;49.304;10.576;2022-12-18T04:00:10;-8.30;99.90
11122;DHT22;5615;49.304;10.576;2022-12-18T04:02:40;-8.40;99.90
11122;DHT22;5615;49.304;10.576;2022-12-18T04:05:09;-8.40;99.90
11122;DHT22;5615;49.304;10.576;2022-12-18T04:07:38;-8.40;99.90
11122;DHT22;5615;49.304;10.576;2022-12-18T04:10:07;-8.30;99.90
11122;DHT22;5615;49.304;10.576;2022-12-18T04:12:34;-8.30;99.90
11122;DHT22;5615;49.304;10.576;2022-12-18T04:15:02;-8.30;99.90
11122;DHT22;5615;49.304;10.576;2022-12-18T04:17:29;-8.20;99.90
11122;DHT22;5615;49.304;10.576;2022-12-18T04:19:55;-8.20;99.90
11122;DHT22;5615;49.304;10.576;2022-12-18T04:22:22;-8.20;99.90
11122;DHT22;5615;49.304;10.576;2022-12-18T04:24:48;-8.20;99.90
11122;DHT22;5615;49.304;10.576;2022-12-18T04:27:15;-8.20;99.90
11122;DHT22;5615;49.304;10.576;2022-12-18T04:29:42;-8.20;99.90
11122;DHT22;5615;49.304;10.576;2022-12-18T04:32:10;-8.20;99.90
11122;DHT22;5615;49.304;10.576;2022-12-18T04:34:36;-8.20;99.90
11122;DHT22;5615;49.304;10.576;2022-12-18T04:37:03;-8.20;99.90
11122;DHT22;5615;49.304;10.576;2022-12-18T04:39:30;-8.20;99.90
11122;DHT22;5615;49.304;10.576;2022-12-18T04:42:00;-8.10;99.90
11122;DHT22;5615;49.304;10.576;2022-12-18T04:44:26;-8.10;99.90
11122;DHT22;5615;49.304;10.576;2022-12-18T04:46:53;-8.10;99.90
11122;DHT22;5615;49.304;10.576;2022-12-18T04:49:21;-8.00;99.90
11122;DHT22;5615;49.304;10.576;2022-12-18T04:51:48;-8.00;99.90
11122;DHT22;5615;49.304;10.576;2022-12-18T04:54:14;-7.90;99.90
11122;DHT22;5615;49.304;10.576;2022-12-18T04:56:41;-7.90;99.90
11122;DHT22;5615;49.304;10.576;2022-12-18T04:59:07;-7.90;99.90
11122;DHT22;5615;49.304;10.576;2022-12-18T05:01:34;-7.90;99.90
11122;DHT22;5615;49.304;10.576;2022-12-18T05:04:01;-7.90;99.90
11122;DHT22;5615;49.304;10.576;2022-12-18T05:06:29;-7.90;99.90
11122;DHT22;5615;49.304;10.576;2022-12-18T05:08:56;-8.00;99.90
11122;DHT22;5615;49.304;10.576;2022-12-18T05:11:22;-8.00;99.90
11122;DHT22;5615;49.304;10.576;2022-12-18T05:13:49;-8.10;99.90
11122;DHT22;5615;49.304;10.576;2022-12-18T05:16:16;-8.10;99.90
11122;DHT22;5615;49.304;10.576;2022-12-18T05:18:42;-8.10;99.90
11122;DHT22;5615;49.304;10.576;2022-12-18T05:21:09;-8.00;99.90
11122;DHT22;5615;49.304;10.576;2022-12-18T05:23:37;-8.00;99.90
11122;DHT22;5615;49.304;10.576;2022-12-18T05:26:05;-7.90;99.90
11122;DHT22;5615;49.304;10.576;2022-12-18T05:28:34;-7.90;99.90
11122;DHT22;5615;49.304;10.576;2022-12-18T05:31:02;-7.90;99.90
11122;DHT22;5615;49.304;10.576;2022-12-18T05:33:31;-7.90;99.90
11122;DHT22;5615;49.304;10.576;2022-12-18T05:36:00;-7.80;99.90
11122;DHT22;5615;49.304;10.576;2022-12-18T05:38:29;-7.80;99.90
11122;DHT22;5615;49.304;10.576;2022-12-18T05:40:58;-7.80;99.90
11122;DHT22;5615;49.304;10.576;2022-12-18T05:43:25;-7.70;99.90
11122;DHT22;5615;49.304;10.576;2022-12-18T05:45:53;-7.70;99.90
11122;DHT22;5615;49.304;10.576;2022-12-18T05:48:21;-7.70;99.90
11122;DHT22;5615;49.304;10.576;2022-12-18T05:50:49;-7.70;99.90
11122;DHT22;5615;49.304;10.576;2022-12-18T05:53:18;-7.70;99.90
11122;DHT22;5615;49.304;10.576;2022-12-18T05:55:46;-7.70;99.90
11122;DHT22;5615;49.304;10.576;2022-12-18T05:58:14;-7.70;99.90
11122;DHT22;5615;49.304;10.576;2022-12-18T06:00:44;-7.70;99.90
11122;DHT22;5615;49.304;10.576;2022-12-18T06:03:11;-7.60;99.90
11122;DHT22;5615;49.304;10.576;2022-12-18T06:05:40;-7.60;99.90
11122;DHT22;5615;49.304;10.576;2022-12-18T06:08:07;-7.50;99.90
11122;DHT22;5615;49.304;10.576;2022-12-18T06:10:34;-7.50;99.90
11122;DHT22;5615;49.304;10.576;2022-12-18T06:13:01;-7.50;99.90
11122;DHT22;5615;49.304;10.576;2022-12-18T06:15:29;-7.50;99.90
11122;DHT22;5615;49.304;10.576;2022-12-18T06:17:56;-7.50;99.90
11122;DHT22;5615;49.304;10.576;2022-12-18T06:20:22;-7.50;99.90
11122;DHT22;5615;49.304;10.576;2022-12-18T06:22:49;-7.50;99.90
11122;DHT22;5615;49.304;10.576;2022-12-18T06:25:16;-7.50;99.90
11122;DHT22;5615;49.304;10.576;2022-12-18T06:27:43;-7.40;99.90
11122;DHT22;5615;49.304;10.576;2022-12-18T06:30:10;-7.40;99.90
11122;DHT22;5615;49.304;10.576;2022-12-18T06:32:39;-7.40;99.90
11122;DHT22;5615;49.304;10.576;2022-12-18T06:35:06;-7.40;99.90
11122;DHT22;5615;49.304;10.576;2022-12-18T06:37:33;-7.30;99.90
11122;DHT22;5615;49.304;10.576;2022-12-18T06:40:00;-7.30;99.90
11122;DHT22;5615;49.304;10.576;2022-12-18T06:42:28;-7.30;99.90
11122;DHT22;5615;49.304;10.576;2022-12-18T06:44:55;-7.20;99.90
11122;DHT22;5615;49.304;10.576;2022-12-18T06:47:22;-7.20;99.90
11122;DHT22;5615;49.304;10.576;2022-12-18T06:49:50;-7.20;99.90
11122;DHT22;5615;49.304;10.576;2022-12-18T06:52:16;-7.20;99.90
11122;DHT22;5615;49.304;10.576;2022-12-18T06:54:43;-7.10;99.90
11122;DHT22;5615;49.304;10.576;2022-12-18T06:57:10;-7.10;99.90
11122;DHT22;5615;49.304;10.576;2022-12-18T06:59:36;-7.10;99.90
11122;DHT22;5615;49.304;10.576;2022-12-18T07:02:03;-7.00;99.90
11122;DHT22;5615;49.304;10.576;2022-12-18T07:04:30;-7.00;99.90
11122;DHT22;5615;49.304;10.576;2022-12-18T07:06:58;-7.00;99.90
11122;DHT22;5615;49.304;10.576;2022-12-18T07:09:25;-7.00;99.90
11122;DHT22;5615;49.304;10.576;2022-12-18T07:11:51;-6.90;99.90
11122;DHT22;5615;49.304;10.576;2022-12-18T07:14:18;-6.90;99.90
11122;DHT22;5615;49.304;10.576;2022-12-18T07:16:45;-6.90;99.90
11122;DHT22;5615;49.304;10.576;2022-12-18T07:19:11;-6.90;99.90
11122;DHT22;5615;49.304;10.576;2022-12-18T07:21:38;-6.80;99.90
11122;DHT22;5615;49.304;10.576;2022-12-18T07:24:07;-6.80;99.90
11122;DHT22;5615;49.304;10.576;2022-12-18T07:26:34;-6.70;99.90
11122;DHT22;5615;49.304;10.576;2022-12-18T07:29:00;-6.70;99.90
11122;DHT22;5615;49.304;10.576;2022-12-18T07:31:27;-6.60;99.90
11122;DHT22;5615;49.304;10.576;2022-12-18T07:33:55;-6.60;99.90
11122;DHT22;5615;49.304;10.576;2022-12-18T07:36:22;-6.50;99.90
11122;DHT22;5615;49.304;10.576;2022-12-18T07:38:49;-6.50;99.90
11122;DHT22;5615;49.304;10.576;2022-12-18T07:41:18;-6.40;99.90
11122;DHT22;5615;49.304;10.576;2022-12-18T07:43:46;-6.40;99.90
11122;DHT22;5615;49.304;10.576;2022-12-18T07:46:13;-6.30;99.90
11122;DHT22;5615;49.304;10.576;2022-12-18T07:48:41;-6.30;99.90
11122;DHT22;5615;49.304;10.576;2022-12-18T07:51:08;-6.30;99.90
11122;DHT22;5615;49.304;10.576;2022-12-18T07:53:39;-6.20;99.90
11122;DHT22;5615;49.304;10.576;2022-12-18T07:56:08;-6.20;99.90
11122;DHT22;5615;49.304;10.576;2022-12-18T07:58:37;-6.20;99.90
11122;DHT22;5615;49.304;10.576;2022-12-18T08:01:04;-6.00;99.90
11122;DHT22;5615;49.304;10.576;2022-12-18T08:03:31;-5.90;99.90
11122;DHT22;5615;49.304;10.576;2022-12-18T08:05:59;-5.90;99.90
11122;DHT22;5615;49.304;10.576;2022-12-18T08:08:26;-5.80;99.90
11122;DHT22;5615;49.304;10.576;2022-12-18T08:10:53;-5.80;99.90
11122;DHT22;5615;49.304;10.576;2022-12-18T08:13:19;-5.70;99.90
11122;DHT22;5615;49.304;10.576;2022-12-18T08:15:55;-5.70;99.90
11122;DHT22;5615;49.304;10.576;2022-12-18T08:18:22;-5.70;99.90
11122;DHT22;5615;49.304;10.576;2022-12-18T08:20:49;-5.60;99.90
11122;DHT22;5615;49.304;10.576;2022-12-18T08:23:15;-5.50;99.90
11122;DHT22;5615;49.304;10.576;2022-12-18T08:25:42;-5.50;99.90
11122;DHT22;5615;49.304;10.576;2022-12-18T08:28:09;-5.40;99.90
11122;DHT22;5615;49.304;10.576;2022-12-18T08:30:36;-5.30;99.90
11122;DHT22;5615;49.304;10.576;2022-12-18T08:33:04;-5.30;99.90
11122;DHT22;5615;49.304;10.576;2022-12-18T08:35:35;-5.30;99.90
11122;DHT22;5615;49.304;10.576;2022-12-18T08:38:01;-5.30;99.90
11122;DHT22;5615;49.304;10.576;2022-12-18T08:40:28;-5.30;99.90
11122;DHT22;5615;49.304;10.576;2022-12-18T08:42:54;-5.30;99.90
11122;DHT22;5615;49.304;10.576;2022-12-18T08:45:39;-5.10;99.90
11122;DHT22;5615;49.304;10.576;2022-12-18T08:48:07;-5.00;99.90
11122;DHT22;5615;49.304;10.576;2022-12-18T08:50:33;-5.10;99.90
11122;DHT22;5615;49.304;10.576;2022-12-18T08:53:00;-5.20;99.90
11122;DHT22;5615;49.304;10.576;2022-12-18T08:55:27;-5.10;99.90
11122;DHT22;5615;49.304;10.576;2022-12-18T08:57:54;-5.00;99.90
11122;DHT22;5615;49.304;10.576;2022-12-18T09:00:20;-4.90;99.90
11122;DHT22;5615;49.304;10.576;2022-12-18T09:02:47;-4.80;99.90
11122;DHT22;5615;49.304;10.576;2022-12-18T09:05:15;-4.80;99.90
11122;DHT22;5615;49.304;10.576;2022-12-18T09:07:42;-4.80;99.90
11122;DHT22;5615;49.304;10.576;2022-12-18T09:10:10;-4.70;99.90
11122;DHT22;5615;49.304;10.576;2022-12-18T09:12:37;-4.60;99.90
11122;DHT22;5615;49.304;10.576;2022-12-18T09:15:05;-4.60;99.90
11122;DHT22;5615;49.304;10.576;2022-12-18T09:17:32;-4.60;99.90
11122;DHT22;5615;49.304;10.576;2022-12-18T09:19:58;-4.50;99.90
11122;DHT22;5615;49.304;10.576;2022-12-18T09:22:26;-4.50;99.90
11122;DHT22;5615;49.304;10.576;2022-12-18T09:24:53;-4.50;99.90
11122;DHT22;5615;49.304;10.576;2022-12-18T09:27:21;-4.50;99.90
11122;DHT22;5615;49.304;10.576;2022-12-18T09:29:48;-4.30;99.90
11122;DHT22;5615;49.304;10.576;2022-12-18T09:32:14;-4.20;99.90
11122;DHT22;5615;49.304;10.576;2022-12-18T09:34:41;-4.20;99.90
11122;DHT22;5615;49.304;10.576;2022-12-18T09:37:08;-4.30;99.90
11122;DHT22;5615;49.304;10.576;2022-12-18T09:39:36;-4.20;99.90
11122;DHT22;5615;49.304;10.576;2022-12-18T09:42:02;-4.10;99.90
11122;DHT22;5615;49.304;10.576;2022-12-18T09:44:31;-4.00;99.90
11122;DHT22;5615;49.304;10.576;2022-12-18T09:47:09;-4.00;99.90
11122;DHT22;5615;49.304;10.576;2022-12-18T09:49:39;-3.90;99.90
11122;DHT22;5615;49.304;10.576;2022-12-18T09:52:11;-3.80;99.90
11122;DHT22;5615;49.304;10.576;2022-12-18T09:54:46;-3.70;99.90
11122;DHT22;5615;49.304;10.576;2022-12-18T09:57:16;-3.50;99.90
11122;DHT22;5615;49.304;10.576;2022-12-18T09:59:47;-3.50;99.90
11122;DHT22;5615;49.304;10.576;2022-12-18T10:02:17;-3.50;99.90
11122;DHT22;5615;49.304;10.576;2022-12-18T10:04:52;-3.50;99.90
11122;DHT22;5615;49.304;10.576;2022-12-18T10:07:27;-3.40;99.90
11122;DHT22;5615;49.304;10.576;2022-12-18T10:10:06;-3.40;99.90
11122;DHT22;5615;49.304;10.576;2022-12-18T10:12:42;-3.40;99.90
11122;DHT22;5615;49.304;10.576;2022-12-18T10:15:14;-3.40;99.90
11122;DHT22;5615;49.304;10.576;2022-12-18T10:17:46;-3.20;99.90
11122;DHT22;5615;49.304;10.576;2022-12-18T10:20:17;-2.80;99.90
11122;DHT22;5615;49.304;10.576;2022-12-18T10:22:53;-2.70;99.90
11122;DHT22;5615;49.304;10.576;2022-12-18T10:25:26;-2.80;99.90
11122;DHT22;5615;49.304;10.576;2022-12-18T10:27:56;-2.90;99.90
11122;DHT22;5615;49.304;10.576;2022-12-18T10:30:25;-2.90;99.90
11122;DHT22;5615;49.304;10.576;2022-12-18T10:32:52;-2.80;99.90
11122;DHT22;5615;49.304;10.576;2022-12-18T10:35:21;-2.90;99.90
11122;DHT22;5615;49.304;10.576;2022-12-18T10:38:03;-2.70;99.90
11122;DHT22;5615;49.304;10.576;2022-12-18T10:40:32;-3.10;99.90
11122;DHT22;5615;49.304;10.576;2022-12-18T10:43:04;-3.20;99.90
11122;DHT22;5615;49.304;10.576;2022-12-18T10:45:31;-3.30;99.90
11122;DHT22;5615;49.304;10.576;2022-12-18T10:47:58;-3.50;99.90
11122;DHT22;5615;49.304;10.576;2022-12-18T10:50:30;-3.40;99.90
11122;DHT22;5615;49.304;10.576;2022-12-18T10:52:59;-3.30;99.90
11122;DHT22;5615;49.304;10.576;2022-12-18T10:55:32;-3.10;99.90
11122;DHT22;5615;49.304;10.576;2022-12-18T10:58:16;-3.10;99.90
11122;DHT22;5615;49.304;10.576;2022-12-18T11:00:45;-3.10;99.90
11122;DHT22;5615;49.304;10.576;2022-12-18T11:03:31;-3.10;99.90
11122;DHT22;5615;49.304;10.576;2022-12-18T11:06:06;-3.00;99.90
11122;DHT22;5615;49.304;10.576;2022-12-18T11:08:34;-2.80;99.90
11122;DHT22;5615;49.304;10.576;2022-12-18T11:11:03;-2.40;99.90
11122;DHT22;5615;49.304;10.576;2022-12-18T11:13:31;-2.00;99.90
11122;DHT22;5615;49.304;10.576;2022-12-18T11:15:58;-1.50;99.90
11122;DHT22;5615;49.304;10.576;2022-12-18T11:18:28;-1.10;99.90
11122;DHT22;5615;49.304;10.576;2022-12-18T11:20:56;-1.40;99.90
11122;DHT22;5615;49.304;10.576;2022-12-18T11:23:24;-1.30;99.90
11122;DHT22;5615;49.304;10.576;2022-12-18T11:25:54;-1.50;99.90
11122;DHT22;5615;49.304;10.576;2022-12-18T11:28:28;-1.40;99.90
11122;DHT22;5615;49.304;10.576;2022-12-18T11:31:21;-1.40;99.90
11122;DHT22;5615;49.304;10.576;2022-12-18T11:33:54;-0.80;99.90
11122;DHT22;5615;49.304;10.576;2022-12-18T11:36:23;0.40;99.90
11122;DHT22;5615;49.304;10.576;2022-12-18T11:38:51;2.60;99.90
11122;DHT22;5615;49.304;10.576;2022-12-18T11:41:25;3.70;99.90
11122;DHT22;5615;49.304;10.576;2022-12-18T11:44:19;4.20;99.90
11122;DHT22;5615;49.304;10.576;2022-12-18T11:46:53;4.50;99.90
11122;DHT22;5615;49.304;10.576;2022-12-18T11:49:24;4.00;99.90
11122;DHT22;5615;49.304;10.576;2022-12-18T11:51:56;3.40;99.90
11122;DHT22;5615;49.304;10.576;2022-12-18T11:54:25;2.90;99.90
11122;DHT22;5615;49.304;10.576;2022-12-18T11:56:56;3.10;99.90
11122;DHT22;5615;49.304;10.576;2022-12-18T11:59:33;2.90;99.90
11122;DHT22;5615;49.304;10.576;2022-12-18T12:02:11;2.80;99.90
11122;DHT22;5615;49.304;10.576;2022-12-18T12:04:55;2.50;99.90
11122;DHT22;5615;49.304;10.576;2022-12-18T12:07:36;2.70;99.90
11122;DHT22;5615;49.304;10.576;2022-12-18T12:10:18;2.10;99.90
11122;DHT22;5615;49.304;10.576;2022-12-18T12:12:58;1.30;99.90
11122;DHT22;5615;49.304;10.576;2022-12-18T12:15:37;0.90;99.90
11122;DHT22;5615;49.304;10.576;2022-12-18T12:18:15;0.30;99.90
11122;DHT22;5615;49.304;10.576;2022-12-18T12:20:53;-0.30;99.90
11122;DHT22;5615;49.304;10.576;2022-12-18T12:23:33;-0.50;99.90
11122;DHT22;5615;49.304;10.576;2022-12-18T12:26:08;-0.60;99.90
11122;DHT22;5615;49.304;10.576;2022-12-18T12:28:57;-0.40;99.90
11122;DHT22;5615;49.304;10.576;2022-12-18T12:31:38;-0.20;99.90
11122;DHT22;5615;49.304;10.576;2022-12-18T12:34:16;0.00;99.90
11122;DHT22;5615;49.304;10.576;2022-12-18T12:36:58;-0.20;99.90
11122;DHT22;5615;49.304;10.576;2022-12-18T12:39:33;0.10;99.90
11122;DHT22;5615;49.304;10.576;2022-12-18T12:42:02;0.30;99.90
11122;DHT22;5615;49.304;10.576;2022-12-18T12:44:50;0.30;99.90
11122;DHT22;5615;49.304;10.576;2022-12-18T12:47:22;0.10;99.90
11122;DHT22;5615;49.304;10.576;2022-12-18T12:49:50;-0.30;99.90
11122;DHT22;5615;49.304;10.576;2022-12-18T12:52:25;-0.50;99.90
11122;DHT22;5615;49.304;10.576;2022-12-18T12:54:54;-0.70;99.90
11122;DHT22;5615;49.304;10.576;2022-12-18T12:57:24;-0.70;99.90
11122;DHT22;5615;49.304;10.576;2022-12-18T13:00:00;-0.40;99.90
11122;DHT22;5615;49.304;10.576;2022-12-18T13:02:35;-0.30;99.90
11122;DHT22;5615;49.304;10.576;2022-12-18T13:05:09;0.10;99.90
11122;DHT22;5615;49.304;10.576;2022-12-18T13:07:40;-0.30;99.90
11122;DHT22;5615;49.304;10.576;2022-12-18T13:10:32;0.00;99.90
11122;DHT22;5615;49.304;10.576;2022-12-18T13:13:01;-0.40;99.90
11122;DHT22;5615;49.304;10.576;2022-12-18T13:15:36;-0.10;99.90
11122;DHT22;5615;49.304;10.576;2022-12-18T13:18:26;-0.40;99.90
11122;DHT22;5615;49.304;10.576;2022-12-18T13:21:12;-0.40;99.90
11122;DHT22;5615;49.304;10.576;2022-12-18T13:23:42;-0.20;99.90
11122;DHT22;5615;49.304;10.576;2022-12-18T13:26:30;-0.20;99.90
11122;DHT22;5615;49.304;10.576;2022-12-18T13:28:59;-0.30;99.90
11122;DHT22;5615;49.304;10.576;2022-12-18T13:31:57;0.00;99.90
11122;DHT22;5615;49.304;10.576;2022-12-18T13:34:27;0.20;99.90
11122;DHT22;5615;49.304;10.576;2022-12-18T13:36:56;0.00;99.90
11122;DHT22;5615;49.304;10.576;2022-12-18T13:39:31;0.20;99.90
11122;DHT22;5615;49.304;10.576;2022-12-18T13:45:59;0.40;99.90
11122;DHT22;5615;49.304;10.576;2022-12-18T13:48:27;0.00;99.90
11122;DHT22;5615;49.304;10.576;2022-12-18T13:51:01;-0.30;99.90
11122;DHT22;5615;49.304;10.576;2022-12-18T13:53:33;-0.70;99.90
11122;DHT22;5615;49.304;10.576;2022-12-18T13:56:00;-1.10;99.90
11122;DHT22;5615;49.304;10.576;2022-12-18T13:58:28;-1.00;99.90
11122;DHT22;5615;49.304;10.576;2022-12-18T14:00:54;-1.20;99.90
11122;DHT22;5615;49.304;10.576;2022-12-18T14:03:23;-1.30;99.90
11122;DHT22;5615;49.304;10.576;2022-12-18T14:06:02;-1.60;99.90
11122;DHT22;5615;49.304;10.576;2022-12-18T14:08:37;-1.80;99.90
11122;DHT22;5615;49.304;10.576;2022-12-18T14:11:05;-2.20;99.90
11122;DHT22;5615;49.304;10.576;2022-12-18T14:13:37;-2.40;99.90
11122;DHT22;5615;49.304;10.576;2022-12-18T14:16:06;-2.60;99.90
11122;DHT22;5615;49.304;10.576;2022-12-18T14:18:41;-2.60;99.90
11122;DHT22;5615;49.304;10.576;2022-12-18T14:21:18;-2.60;99.90
11122;DHT22;5615;49.304;10.576;2022-12-18T14:23:46;-2.70;99.90
11122;DHT22;5615;49.304;10.576;2022-12-18T14:26:22;-2.90;99.90
11122;DHT22;5615;49.304;10.576;2022-12-18T14:28:49;-3.00;99.90
11122;DHT22;5615;49.304;10.576;2022-12-18T14:31:21;-3.00;99.90
11122;DHT22;5615;49.304;10.576;2022-12-18T14:33:49;-3.10;99.90
11122;DHT22;5615;49.304;10.576;2022-12-18T14:36:19;-3.10;99.90
11122;DHT22;5615;49.304;10.576;2022-12-18T14:38:49;-3.30;99.90
11122;DHT22;5615;49.304;10.576;2022-12-18T14:41:17;-3.40;99.90
11122;DHT22;5615;49.304;10.576;2022-12-18T14:43:46;-3.50;99.90
11122;DHT22;5615;49.304;10.576;2022-12-18T14:46:29;-3.60;99.90
11122;DHT22;5615;49.304;10.576;2022-12-18T14:48:56;-3.70;99.90
11122;DHT22;5615;49.304;10.576;2022-12-18T14:51:27;-3.70;99.90
11122;DHT22;5615;49.304;10.576;2022-12-18T14:53:55;-3.90;99.90
11122;DHT22;5615;49.304;10.576;2022-12-18T14:56:24;-3.90;99.90
11122;DHT22;5615;49.304;10.576;2022-12-18T14:58:54;-4.00;99.90
11122;DHT22;5615;49.304;10.576;2022-12-18T15:01:27;-4.00;99.90
11122;DHT22;5615;49.304;10.576;2022-12-18T15:03:55;-4.00;99.90
11122;DHT22;5615;49.304;10.576;2022-12-18T15:06:28;-4.10;99.90
11122;DHT22;5615;49.304;10.576;2022-12-18T15:08:55;-4.20;99.90
11122;DHT22;5615;49.304;10.576;2022-12-18T15:11:33;-4.20;99.90
11122;DHT22;5615;49.304;10.576;2022-12-18T15:17:06;-4.20;99.90
11122;DHT22;5615;49.304;10.576;2022-12-18T15:19:37;-4.30;99.90
11122;DHT22;5615;49.304;10.576;2022-12-18T15:22:21;-4.30;99.90
11122;DHT22;5615;49.304;10.576;2022-12-18T15:24:49;-4.30;99.90
11122;DHT22;5615;49.304;10.576;2022-12-18T15:27:29;-4.30;99.90
11122;DHT22;5615;49.304;10.576;2022-12-18T15:30:20;-4.20;99.90
11122;DHT22;5615;49.304;10.576;2022-12-18T15:32:48;-4.20;99.90
11122;DHT22;5615;49.304;10.576;2022-12-18T15:35:18;-4.20;99.90
11122;DHT22;5615;49.304;10.576;2022-12-18T15:37:46;-4.20;99.90
11122;DHT22;5615;49.304;10.576;2022-12-18T15:40:14;-4.20;99.90
11122;DHT22;5615;49.304;10.576;2022-12-18T15:45:17;-4.20;99.90
11122;DHT22;5615;49.304;10.576;2022-12-18T16:08:29;-4.40;99.90
11122;DHT22;5615;49.304;10.576;2022-12-18T16:10:57;-4.40;99.90
11122;DHT22;5615;49.304;10.576;2022-12-18T16:13:25;-4.40;99.90
11122;DHT22;5615;49.304;10.576;2022-12-18T16:21:19;-4.40;99.90
11122;DHT22;5615;49.304;10.576;2022-12-18T16:39:23;-4.50;99.90
11122;DHT22;5615;49.304;10.576;2022-12-18T16:42:06;-4.50;99.90